createdAt,value
2018-04-10T00:00:23.589Z,28.70
2018-04-10T00:01:23.559Z,26.30
2018-04-10T00:02:23.558Z,27.50
2018-04-10T00:03:23.532Z,27.90
2018-04-10T00:04:23.514Z,27.40
2018-04-10T00:05:23.500Z,27.80
2018-04-10T00:06:23.485Z,27.50
2018-04-10T00:07:23.470Z,27.40
2018-04-10T00:08:23.491Z,28.10
2018-04-10T00:09:23.457Z,27.80
2018-04-10T00:10:23.417Z,29.00
2018-04-10T00:11:23.426Z,29.30
2018-04-10T00:12:23.408Z,28.60
2018-04-10T00:13:23.377Z,29.40
2018-04-10T00:14:23.357Z,29.20
2018-04-10T00:15:23.333Z,28.60
2018-04-10T00:16:23.315Z,31.00
2018-04-10T00:17:23.330Z,29.80
2018-04-10T00:18:23.288Z,30.30
2018-04-10T00:19:23.275Z,29.40
2018-04-10T00:20:23.274Z,31.30
2018-04-10T00:21:23.237Z,30.30
2018-04-10T00:22:23.246Z,30.60
2018-04-10T00:23:23.223Z,30.70
2018-04-10T00:24:23.191Z,31.30
2018-04-10T00:25:23.175Z,29.90
2018-04-10T00:26:23.160Z,31.40
2018-04-10T00:27:23.154Z,30.50
2018-04-10T00:28:23.128Z,32.50
2018-04-10T00:29:23.107Z,32.00
2018-04-10T00:30:23.107Z,30.60
2018-04-10T00:31:23.084Z,30.40
2018-04-10T00:32:23.057Z,33.30
2018-04-10T00:33:23.045Z,30.90
2018-04-10T00:34:23.016Z,32.80
2018-04-10T00:35:23.001Z,31.50
2018-04-10T00:36:23.005Z,32.80
2018-04-10T00:37:22.968Z,32.40
2018-04-10T00:38:22.989Z,32.60
2018-04-10T00:39:22.966Z,31.90
2018-04-10T00:40:22.940Z,33.80
2018-04-10T00:41:22.901Z,31.40
2018-04-10T00:42:22.896Z,31.80
2018-04-10T00:43:22.895Z,32.10
2018-04-10T00:44:22.856Z,33.10
2018-04-10T00:45:22.868Z,34.50
2018-04-10T00:46:22.816Z,35.30
2018-04-10T00:47:22.804Z,31.80
2018-04-10T00:48:22.788Z,33.90
2018-04-10T00:49:22.800Z,32.40
2018-04-10T00:50:22.760Z,33.00
2018-04-10T00:51:22.738Z,33.90
2018-04-10T00:52:22.716Z,33.10
2018-04-10T00:53:22.705Z,32.00
2018-04-10T00:54:22.712Z,32.40
2018-04-10T00:55:22.668Z,33.30
2018-04-10T00:56:22.685Z,32.00
2018-04-10T00:57:22.642Z,31.00
2018-04-10T00:58:22.628Z,33.80
2018-04-10T00:59:22.613Z,32.50
2018-04-10T01:00:22.593Z,32.30
2018-04-10T01:01:22.565Z,32.20
2018-04-10T01:02:22.550Z,32.80
2018-04-10T01:03:22.533Z,33.50
2018-04-10T01:04:22.541Z,33.00
2018-04-10T01:05:22.505Z,33.60
2018-04-10T01:06:22.508Z,33.40
2018-04-10T01:07:22.477Z,33.60
2018-04-10T01:08:22.476Z,32.70
2018-04-10T01:09:22.448Z,34.40
2018-04-10T01:10:22.457Z,33.90
2018-04-10T01:11:22.401Z,33.10
2018-04-10T01:12:22.409Z,33.50
2018-04-10T01:13:22.399Z,33.10
2018-04-10T01:14:22.399Z,33.40
2018-04-10T01:15:22.332Z,32.90
2018-04-10T01:16:22.338Z,33.60
2018-04-10T01:17:22.299Z,32.50
2018-04-10T01:18:22.297Z,34.30
2018-04-10T01:19:22.267Z,34.20
2018-04-10T01:20:22.248Z,33.60
2018-04-10T01:21:22.226Z,35.10
2018-04-10T01:22:22.218Z,33.20
2018-04-10T01:23:22.195Z,34.40
2018-04-10T01:24:22.208Z,33.50
2018-04-10T01:25:22.160Z,34.80
2018-04-10T01:26:22.171Z,33.70
2018-04-10T01:27:22.128Z,33.00
2018-04-10T01:28:22.117Z,34.20
2018-04-10T01:29:22.098Z,34.10
2018-04-10T01:30:22.078Z,34.20
2018-04-10T01:31:22.072Z,34.40
2018-04-10T01:32:22.067Z,35.70
2018-04-10T01:33:22.052Z,35.80
2018-04-10T01:34:22.033Z,35.70
2018-04-10T01:35:21.991Z,35.90
2018-04-10T01:36:22.011Z,37.10
2018-04-10T01:37:21.975Z,34.40
2018-04-10T01:38:21.948Z,34.90
2018-04-10T01:39:21.947Z,35.10
2018-04-10T01:40:21.910Z,35.20
2018-04-10T01:41:21.902Z,33.90
2018-04-10T01:42:21.881Z,36.40
2018-04-10T01:43:21.876Z,34.80
2018-04-10T01:44:21.843Z,36.80
2018-04-10T01:45:21.831Z,35.40
2018-04-10T01:46:21.800Z,36.00
2018-04-10T01:47:21.801Z,36.50
2018-04-10T01:48:21.772Z,36.20
2018-04-10T01:49:21.748Z,36.00
2018-04-10T01:50:21.740Z,37.00
2018-04-10T01:51:21.712Z,37.30
2018-04-10T01:52:21.695Z,36.20
2018-04-10T01:53:21.678Z,37.10
2018-04-10T01:54:21.667Z,35.40
2018-04-10T01:55:21.648Z,35.00
2018-04-10T01:56:21.634Z,35.40
2018-04-10T01:57:21.615Z,36.40
2018-04-10T01:58:21.599Z,36.60
2018-04-10T01:59:21.586Z,35.40
2018-04-10T02:00:21.563Z,35.10
2018-04-10T02:01:21.548Z,36.50
2018-04-10T02:02:21.535Z,36.80
2018-04-10T02:03:21.519Z,36.40
2018-04-10T02:04:21.500Z,36.30
2018-04-10T02:05:21.530Z,38.30
2018-04-10T02:06:21.457Z,36.20
2018-04-10T02:07:21.463Z,36.40
2018-04-10T02:08:21.434Z,37.60
2018-04-10T02:09:21.413Z,35.90
2018-04-10T02:10:21.422Z,36.00
2018-04-10T02:11:21.401Z,37.30
2018-04-10T02:12:21.391Z,36.80
2018-04-10T02:13:21.349Z,37.60
2018-04-10T02:14:21.316Z,36.00
2018-04-10T02:15:21.308Z,37.20
2018-04-10T02:16:21.284Z,37.20
2018-04-10T02:17:21.267Z,37.30
2018-04-10T02:18:21.268Z,36.90
2018-04-10T02:19:21.238Z,36.70
2018-04-10T02:20:21.227Z,37.40
2018-04-10T02:21:21.225Z,37.50
2018-04-10T02:22:21.182Z,38.00
2018-04-10T02:23:21.182Z,37.90
2018-04-10T02:24:21.160Z,36.70
2018-04-10T02:25:21.142Z,36.70
2018-04-10T02:26:21.112Z,38.60
2018-04-10T02:27:21.096Z,38.00
2018-04-10T02:28:21.106Z,38.80
2018-04-10T02:29:21.088Z,38.60
2018-04-10T02:30:21.045Z,37.30
2018-04-10T02:31:21.042Z,38.30
2018-04-10T02:32:21.015Z,37.30
2018-04-10T02:33:21.005Z,36.00
2018-04-10T02:34:20.993Z,36.90
2018-04-10T02:35:20.983Z,35.90
2018-04-10T02:36:20.945Z,36.60
2018-04-10T02:37:20.925Z,37.70
2018-04-10T02:38:20.939Z,36.80
2018-04-10T02:39:20.910Z,38.30
2018-04-10T02:40:20.890Z,36.10
2018-04-10T02:41:20.854Z,37.50
2018-04-10T02:42:20.841Z,36.60
2018-04-10T02:43:20.816Z,38.60
2018-04-10T02:44:20.805Z,37.30
2018-04-10T02:45:20.807Z,37.40
2018-04-10T02:46:20.773Z,37.70
2018-04-10T02:47:20.755Z,37.30
2018-04-10T02:48:20.753Z,37.90
2018-04-10T02:49:20.715Z,38.80
2018-04-10T02:50:20.705Z,36.40
2018-04-10T02:51:20.692Z,38.30
2018-04-10T02:52:20.669Z,36.90
2018-04-10T02:53:20.650Z,38.10
2018-04-10T02:54:20.636Z,37.50
2018-04-10T02:55:20.611Z,37.60
2018-04-10T02:56:20.595Z,37.30
2018-04-10T02:57:20.582Z,37.80
2018-04-10T02:58:20.559Z,36.50
2018-04-10T02:59:20.574Z,37.90
2018-04-10T03:00:20.523Z,38.70
2018-04-10T03:01:20.508Z,40.20
2018-04-10T03:02:20.513Z,37.20
2018-04-10T03:03:20.477Z,38.40
2018-04-10T03:04:20.469Z,38.50
2018-04-10T03:05:20.466Z,39.30
2018-04-10T03:06:20.438Z,38.10
2018-04-10T03:07:20.420Z,38.70
2018-04-10T03:08:20.396Z,38.10
2018-04-10T03:09:20.389Z,36.80
2018-04-10T03:10:20.355Z,38.10
2018-04-10T03:11:20.344Z,37.40
2018-04-10T03:12:20.317Z,36.90
2018-04-10T03:13:20.301Z,38.20
2018-04-10T03:14:20.282Z,36.80
2018-04-10T03:15:20.291Z,37.40
2018-04-10T03:16:20.275Z,36.20
2018-04-10T03:17:20.228Z,38.90
2018-04-10T03:18:20.245Z,36.20
2018-04-10T03:19:20.192Z,37.00
2018-04-10T03:20:20.199Z,36.90
2018-04-10T03:21:20.209Z,36.90
2018-04-10T03:22:20.171Z,36.60
2018-04-10T03:23:20.144Z,35.80
2018-04-10T03:24:20.120Z,35.90
2018-04-10T03:25:20.090Z,36.60
2018-04-10T03:26:20.085Z,36.20
2018-04-10T03:27:20.068Z,34.70
2018-04-10T03:28:20.064Z,35.50
2018-04-10T03:29:20.022Z,36.80
2018-04-10T03:30:20.006Z,36.90
2018-04-10T03:31:19.986Z,35.80
2018-04-10T03:32:19.971Z,37.60
2018-04-10T03:33:19.984Z,36.20
2018-04-10T03:34:19.963Z,34.50
2018-04-10T03:35:19.914Z,36.00
2018-04-10T03:36:19.901Z,36.60
2018-04-10T03:37:19.899Z,35.90
2018-04-10T03:38:19.885Z,36.10
2018-04-10T03:39:19.854Z,36.20
2018-04-10T03:40:19.837Z,36.30
2018-04-10T03:41:19.817Z,35.90
2018-04-10T03:42:19.806Z,35.60
2018-04-10T03:43:19.786Z,36.20
2018-04-10T03:44:19.756Z,35.10
2018-04-10T03:45:19.738Z,35.60
2018-04-10T03:46:19.731Z,35.70
2018-04-10T03:47:19.716Z,36.20
2018-04-10T03:48:19.700Z,34.80
2018-04-10T03:49:19.690Z,37.20
2018-04-10T03:50:19.668Z,34.80
2018-04-10T03:51:19.652Z,35.10
2018-04-10T03:52:19.621Z,36.20
2018-04-10T03:53:19.615Z,36.40
2018-04-10T03:54:19.589Z,36.40
2018-04-10T03:55:19.570Z,35.40
2018-04-10T03:56:19.567Z,36.40
2018-04-10T03:57:19.530Z,36.90
2018-04-10T03:58:19.519Z,36.10
2018-04-10T03:59:19.507Z,35.10
2018-04-10T04:00:19.494Z,34.00
2018-04-10T04:01:19.465Z,35.10
2018-04-10T04:02:19.442Z,34.60
2018-04-10T04:03:19.438Z,37.10
2018-04-10T04:04:19.419Z,35.20
2018-04-10T04:05:19.437Z,35.90
2018-04-10T04:06:19.384Z,36.70
2018-04-10T04:07:19.359Z,36.60
2018-04-10T04:08:19.359Z,36.40
2018-04-10T04:09:19.318Z,36.20
2018-04-10T04:10:19.307Z,37.10
2018-04-10T04:11:19.295Z,38.20
2018-04-10T04:12:19.286Z,38.00
2018-04-10T04:13:19.252Z,37.80
2018-04-10T04:14:19.241Z,37.20
2018-04-10T04:15:19.221Z,35.70
2018-04-10T04:16:19.199Z,37.90
2018-04-10T04:17:19.202Z,37.80
2018-04-10T04:18:19.164Z,36.70
2018-04-10T04:19:19.148Z,35.80
2018-04-10T04:20:19.127Z,36.50
2018-04-10T04:21:19.114Z,37.20
2018-04-10T04:22:19.099Z,36.40
2018-04-10T04:23:19.115Z,37.00
2018-04-10T04:24:19.080Z,35.80
2018-04-10T04:25:19.048Z,33.30
2018-04-10T04:26:19.036Z,36.50
2018-04-10T04:27:19.004Z,36.00
2018-04-10T04:28:19.007Z,37.30
2018-04-10T04:29:18.998Z,35.80
2018-04-10T04:30:18.961Z,35.20
2018-04-10T04:31:18.951Z,33.40
2018-04-10T04:32:18.917Z,34.50
2018-04-10T04:33:18.896Z,34.20
2018-04-10T04:34:18.889Z,35.00
2018-04-10T04:35:18.885Z,34.90
2018-04-10T04:36:18.842Z,34.90
2018-04-10T04:37:18.829Z,33.90
2018-04-10T04:38:18.832Z,35.40
2018-04-10T04:39:18.804Z,34.10
2018-04-10T04:40:18.779Z,34.70
2018-04-10T04:41:18.755Z,35.50
2018-04-10T04:42:18.745Z,36.50
2018-04-10T04:43:18.725Z,33.60
2018-04-10T04:44:18.707Z,33.20
2018-04-10T04:45:18.697Z,32.10
2018-04-10T04:46:18.684Z,33.60
2018-04-10T04:47:18.649Z,34.20
2018-04-10T04:48:18.640Z,34.70
2018-04-10T04:49:18.619Z,35.90
2018-04-10T04:50:18.596Z,33.70
2018-04-10T04:51:18.585Z,32.90
2018-04-10T04:52:18.562Z,34.50
2018-04-10T04:53:18.578Z,32.70
2018-04-10T04:54:18.529Z,33.60
2018-04-10T04:55:18.507Z,34.30
2018-04-10T04:56:18.491Z,32.70
2018-04-10T04:57:18.491Z,33.20
2018-04-10T04:58:18.459Z,34.10
2018-04-10T04:59:18.438Z,33.00
2018-04-10T05:00:18.430Z,31.80
2018-04-10T05:01:18.402Z,34.10
2018-04-10T05:02:18.387Z,38.50
2018-04-10T05:03:18.370Z,35.60
2018-04-10T05:04:18.381Z,36.50
2018-04-10T05:05:18.355Z,33.10
2018-04-10T05:06:18.326Z,34.50
2018-04-10T05:07:18.300Z,34.60
2018-04-10T05:08:18.279Z,34.40
2018-04-10T05:09:18.264Z,32.40
2018-04-10T05:10:18.241Z,34.10
2018-04-10T05:11:18.225Z,33.40
2018-04-10T05:12:18.203Z,34.70
2018-04-10T05:13:18.212Z,34.50
2018-04-10T05:14:18.176Z,33.00
2018-04-10T05:15:18.155Z,33.30
2018-04-10T05:16:18.148Z,33.20
2018-04-10T05:17:18.119Z,32.40
2018-04-10T05:18:18.127Z,32.40
2018-04-10T05:19:18.083Z,34.30
2018-04-10T05:20:18.068Z,32.10
2018-04-10T05:21:18.055Z,33.10
2018-04-10T05:22:18.027Z,32.00
2018-04-10T05:23:18.011Z,31.90
2018-04-10T05:24:17.992Z,30.90
2018-04-10T05:25:17.972Z,31.60
2018-04-10T05:26:17.957Z,31.40
2018-04-10T05:27:17.950Z,30.70
2018-04-10T05:28:17.921Z,31.50
2018-04-10T05:29:17.900Z,31.20
2018-04-10T05:30:17.888Z,31.60
2018-04-10T05:31:17.870Z,29.90
2018-04-10T05:32:17.846Z,29.00
2018-04-10T05:33:17.833Z,30.10
2018-04-10T05:34:17.822Z,29.60
2018-04-10T05:35:17.793Z,30.70
2018-04-10T05:36:17.778Z,30.20
2018-04-10T05:37:17.758Z,29.80
2018-04-10T05:38:17.822Z,29.70
2018-04-10T05:39:17.732Z,28.50
2018-04-10T05:40:17.717Z,29.30
2018-04-10T05:41:17.778Z,29.30
2018-04-10T05:42:17.696Z,28.50
2018-04-10T05:43:17.655Z,29.50
2018-04-10T05:44:17.644Z,29.30
2018-04-10T05:45:17.626Z,29.30
2018-04-10T05:46:17.603Z,27.90
2018-04-10T05:47:17.591Z,27.70
2018-04-10T05:48:17.581Z,28.40
2018-04-10T05:49:17.566Z,28.50
2018-04-10T05:50:17.539Z,28.10
2018-04-10T05:51:17.522Z,27.70
2018-04-10T05:52:17.513Z,28.20
2018-04-10T05:53:17.493Z,26.70
2018-04-10T05:54:17.471Z,26.40
2018-04-10T05:55:17.449Z,27.50
2018-04-10T05:56:17.427Z,26.80
2018-04-10T05:57:17.413Z,27.60
2018-04-10T05:58:17.401Z,27.70
2018-04-10T05:59:17.379Z,26.20
2018-04-10T06:00:17.366Z,28.80
2018-04-10T06:01:17.449Z,27.80
2018-04-10T06:02:17.330Z,27.30
2018-04-10T06:03:17.469Z,26.70
2018-04-10T06:04:17.320Z,26.10
2018-04-10T06:05:17.280Z,25.20
2018-04-10T06:06:17.260Z,26.50
2018-04-10T06:07:17.269Z,27.90
2018-04-10T06:08:17.254Z,26.30
2018-04-10T06:09:17.248Z,26.40
2018-04-10T06:10:17.195Z,26.70
2018-04-10T06:11:17.184Z,26.80
2018-04-10T06:12:17.161Z,28.80
2018-04-10T06:13:17.159Z,27.30
2018-04-10T06:14:17.140Z,26.30
2018-04-10T06:15:17.109Z,26.60
2018-04-10T06:16:17.095Z,25.80
2018-04-10T06:17:17.107Z,26.90
2018-04-10T06:18:17.076Z,27.70
2018-04-10T06:19:17.048Z,25.00
2018-04-10T06:20:17.043Z,25.90
2018-04-10T06:21:17.014Z,25.70
2018-04-10T06:22:17.020Z,25.50
2018-04-10T06:23:16.981Z,27.50
2018-04-10T06:24:16.974Z,25.10
2018-04-10T06:25:16.946Z,25.40
2018-04-10T06:26:16.940Z,27.20
2018-04-10T06:27:16.920Z,24.10
2018-04-10T06:28:16.897Z,24.30
2018-04-10T06:29:16.887Z,23.10
2018-04-10T06:30:16.876Z,25.20
2018-04-10T06:31:16.862Z,21.50
2018-04-10T06:32:16.842Z,22.90
2018-04-10T06:33:16.820Z,23.60
2018-04-10T06:34:16.807Z,24.00
2018-04-10T06:35:17.087Z,24.40
2018-04-10T06:36:16.778Z,23.50
2018-04-10T06:37:16.780Z,23.00
2018-04-10T06:38:16.767Z,22.90
2018-04-10T06:39:16.722Z,24.20
2018-04-10T06:40:16.705Z,22.80
2018-04-10T06:41:16.690Z,22.80
2018-04-10T06:42:16.682Z,22.50
2018-04-10T06:43:16.656Z,23.10
2018-04-10T06:44:16.654Z,23.20
2018-04-10T06:45:16.628Z,22.20
2018-04-10T06:46:16.616Z,22.90
2018-04-10T06:47:16.616Z,23.30
2018-04-10T06:48:16.599Z,21.90
2018-04-10T06:49:16.585Z,21.30
2018-04-10T06:50:16.547Z,21.90
2018-04-10T06:51:16.550Z,21.80
2018-04-10T06:52:16.511Z,22.40
2018-04-10T06:53:16.503Z,20.70
2018-04-10T06:54:16.488Z,21.00
2018-04-10T06:55:16.473Z,21.10
2018-04-10T06:56:16.456Z,20.30
2018-04-10T06:57:16.463Z,19.30
2018-04-10T06:58:16.432Z,19.20
2018-04-10T06:59:16.417Z,22.20
2018-04-10T07:00:16.397Z,18.70
2018-04-10T07:01:16.376Z,19.40
2018-04-10T07:02:16.356Z,20.20
2018-04-10T07:03:16.358Z,19.30
2018-04-10T07:04:16.335Z,19.50
2018-04-10T07:05:16.315Z,18.60
2018-04-10T07:06:16.306Z,18.20
2018-04-10T07:07:16.281Z,18.50
2018-04-10T07:08:16.313Z,19.50
2018-04-10T07:09:16.249Z,17.90
2018-04-10T07:10:16.256Z,18.00
2018-04-10T07:11:16.230Z,17.40
2018-04-10T07:12:16.204Z,17.00
2018-04-10T07:13:16.200Z,16.20
2018-04-10T07:15:38.246Z,15.60
2018-04-10T07:16:38.227Z,16.50
2018-04-10T07:18:32.609Z,16.00
2018-04-10T07:19:32.576Z,16.50
2018-04-10T07:20:32.548Z,15.40
2018-04-10T07:21:32.593Z,14.70
2018-04-10T07:22:32.529Z,14.90
2018-04-10T07:23:32.514Z,14.60
2018-04-10T07:24:32.496Z,14.70
2018-04-10T07:25:32.482Z,14.80
2018-04-10T07:26:32.479Z,16.20
2018-04-10T07:27:32.484Z,16.20
2018-04-10T07:28:32.444Z,15.40
2018-04-10T07:29:32.436Z,13.60
2018-04-10T07:30:32.421Z,13.40
2018-04-10T07:31:32.446Z,13.40
2018-04-10T07:32:32.410Z,13.40
2018-04-10T07:33:32.396Z,16.10
2018-04-10T07:34:32.376Z,16.20
2018-04-10T07:35:32.359Z,13.20
2018-04-10T07:36:32.332Z,13.60
2018-04-10T07:37:32.326Z,13.20
2018-04-10T07:38:32.312Z,13.60
2018-04-10T07:39:32.315Z,13.30
2018-04-10T07:40:32.320Z,12.90
2018-04-10T07:41:32.280Z,13.50
2018-04-10T07:42:32.285Z,15.00
2018-04-10T07:43:32.250Z,15.20
2018-04-10T07:44:32.226Z,14.00
2018-04-10T07:45:32.243Z,13.00
2018-04-10T07:46:32.204Z,18.00
2018-04-10T07:47:32.189Z,12.80
2018-04-10T07:48:32.182Z,12.80
2018-04-10T07:49:32.180Z,13.10
2018-04-10T07:50:32.161Z,13.90
2018-04-10T07:51:32.158Z,19.00
2018-04-10T07:52:32.118Z,16.10
2018-04-10T07:53:32.105Z,12.80
2018-04-10T07:54:32.108Z,12.00
2018-04-10T07:55:32.082Z,12.50
2018-04-10T07:56:32.081Z,11.90
2018-04-10T07:57:32.081Z,12.30
2018-04-10T07:58:32.063Z,11.70
2018-04-10T07:59:32.023Z,11.60
2018-04-10T08:00:32.007Z,12.90
2018-04-10T08:01:31.995Z,8.50
2018-04-10T08:02:31.986Z,10.40
2018-04-10T08:03:31.990Z,9.20
2018-04-10T08:04:31.980Z,10.30
2018-04-10T08:05:31.964Z,9.00
2018-04-10T08:06:31.943Z,8.90
2018-04-10T08:07:31.936Z,8.10
2018-04-10T08:08:31.925Z,10.30
2018-04-10T08:09:31.916Z,10.40
2018-04-10T08:10:31.903Z,7.20
2018-04-10T08:11:31.855Z,7.10
2018-04-10T08:12:31.865Z,7.50
2018-04-10T08:14:55.030Z,7.60
2018-04-10T08:15:55.010Z,7.00
2018-04-10T08:16:54.997Z,9.40
2018-04-10T08:17:54.991Z,7.20
2018-04-10T08:18:54.983Z,9.20
2018-04-10T08:19:54.953Z,6.50
2018-04-10T08:20:54.958Z,7.80
2018-04-10T08:21:54.935Z,9.20
2018-04-10T08:22:54.902Z,7.00
2018-04-10T08:23:54.923Z,5.70
2018-04-10T08:24:54.885Z,6.90
2018-04-10T08:25:54.874Z,6.20
2018-04-10T08:26:54.853Z,12.40
2018-04-10T08:27:54.847Z,7.20
2018-04-10T08:28:54.851Z,5.40
2018-04-10T08:29:54.811Z,8.60
2018-04-10T08:30:54.801Z,6.40
2018-04-10T08:31:54.785Z,5.60
2018-04-10T08:32:54.770Z,6.50
2018-04-10T08:33:54.793Z,6.50
2018-04-10T08:34:54.743Z,7.90
2018-04-10T08:35:54.737Z,9.20
2018-04-10T08:36:54.739Z,6.00
2018-04-10T08:37:54.775Z,6.20
2018-04-10T08:38:54.705Z,7.40
2018-04-10T08:39:54.734Z,8.00
2018-04-10T08:40:54.690Z,9.30
2018-04-10T08:41:54.665Z,6.30
2018-04-10T08:42:54.642Z,8.70
2018-04-10T08:43:54.622Z,10.70
2018-04-10T08:44:54.630Z,7.70
2018-04-10T08:45:54.599Z,10.40
2018-04-10T08:46:54.609Z,6.70
2018-04-10T08:47:54.578Z,9.10
2018-04-10T08:48:54.558Z,7.70
2018-04-10T08:49:54.547Z,8.00
2018-04-10T08:50:54.551Z,7.80
2018-04-10T08:51:54.701Z,6.80
2018-04-10T08:52:54.519Z,7.40
2018-04-10T08:53:54.509Z,11.40
2018-04-10T08:54:54.491Z,7.90
2018-04-10T08:55:54.544Z,8.60
2018-04-10T08:56:54.465Z,9.40
2018-04-10T08:57:54.470Z,6.00
2018-04-10T08:58:54.428Z,4.90
2018-04-10T08:59:54.420Z,6.40
2018-04-10T09:00:54.442Z,6.20
2018-04-10T09:01:54.424Z,5.90
2018-04-10T09:02:54.425Z,4.90
2018-04-10T09:03:54.369Z,5.80
2018-04-10T09:04:54.395Z,6.10
2018-04-10T09:05:54.343Z,9.30
2018-04-10T09:06:54.360Z,6.80
2018-04-10T09:07:54.326Z,6.30
2018-04-10T09:08:54.310Z,5.10
2018-04-10T09:09:54.338Z,7.50
2018-04-10T09:10:54.283Z,5.70
2018-04-10T09:11:54.268Z,6.80
2018-04-10T09:12:54.268Z,6.80
2018-04-10T09:13:54.268Z,5.90
2018-04-10T09:14:54.238Z,7.80
2018-04-10T09:15:54.248Z,8.00
2018-04-10T09:16:54.241Z,6.10
2018-04-10T09:17:54.239Z,8.80
2018-04-10T09:18:54.190Z,8.60
2018-04-10T09:19:54.195Z,7.10
2018-04-10T09:20:54.164Z,4.40
2018-04-10T09:21:54.152Z,6.40
2018-04-10T09:22:54.146Z,7.40
2018-04-10T09:23:54.131Z,5.40
2018-04-10T09:24:54.140Z,4.70
2018-04-10T09:25:54.142Z,4.70
2018-04-10T09:26:54.121Z,4.40
2018-04-10T09:27:54.113Z,5.60
2018-04-10T09:28:54.072Z,6.70
2018-04-10T09:29:54.064Z,5.40
2018-04-10T09:30:54.095Z,5.40
2018-04-10T09:31:54.041Z,6.10
2018-04-10T09:32:54.028Z,5.50
2018-04-10T09:33:54.013Z,5.10
2018-04-10T09:34:54.015Z,6.10
2018-04-10T09:35:54.008Z,10.00
2018-04-10T09:36:54.010Z,4.80
2018-04-10T09:37:53.988Z,6.50
2018-04-10T09:38:53.960Z,6.60
2018-04-10T09:39:53.971Z,6.80
2018-04-10T09:40:53.959Z,6.20
2018-04-10T09:41:53.961Z,5.80
2018-04-10T09:42:53.946Z,5.30
2018-04-10T09:43:53.901Z,4.30
2018-04-10T09:44:53.916Z,4.50
2018-04-10T09:45:53.927Z,5.70
2018-04-10T09:46:53.867Z,6.10
2018-04-10T09:47:53.877Z,5.40
2018-04-10T09:48:53.888Z,5.20
2018-04-10T09:49:53.837Z,4.20
2018-04-10T09:50:53.826Z,3.80
2018-04-10T09:51:53.860Z,4.70
2018-04-10T09:52:53.824Z,5.00
2018-04-10T09:53:53.798Z,8.00
2018-04-10T09:54:53.804Z,7.50
2018-04-10T09:55:53.809Z,4.20
2018-04-10T09:56:53.775Z,6.60
2018-04-10T09:57:53.752Z,5.00
2018-04-10T09:58:53.785Z,5.90
2018-04-10T09:59:53.730Z,5.10
2018-04-10T10:00:53.719Z,10.30
2018-04-10T10:01:53.710Z,7.80
2018-04-10T10:02:53.699Z,4.30
2018-04-10T10:03:53.718Z,4.10
2018-04-10T10:04:53.675Z,4.90
2018-04-10T10:05:53.665Z,5.60
2018-04-10T10:06:53.676Z,6.70
2018-04-10T10:07:53.652Z,4.70
2018-04-10T10:08:53.627Z,5.30
2018-04-10T10:09:53.649Z,5.60
2018-04-10T10:10:53.626Z,4.60
2018-04-10T10:11:53.609Z,4.30
2018-04-10T10:12:53.640Z,4.80
2018-04-10T10:13:53.579Z,4.30
2018-04-10T10:14:53.568Z,3.10
2018-04-10T10:15:53.558Z,5.00
2018-04-10T10:16:53.550Z,2.90
2018-04-10T10:17:53.539Z,3.00
2018-04-10T10:18:53.528Z,3.00
2018-04-10T10:19:53.522Z,4.30
2018-04-10T10:20:53.515Z,4.10
2018-04-10T10:21:53.510Z,5.10
2018-04-10T10:22:53.488Z,5.00
2018-04-10T10:23:53.476Z,3.80
2018-04-10T10:24:53.484Z,3.90
2018-04-10T10:25:53.494Z,4.90
2018-04-10T10:26:53.446Z,3.60
2018-04-10T10:27:53.434Z,4.00
2018-04-10T10:28:53.447Z,5.40
2018-04-10T10:29:53.407Z,4.40
2018-04-10T10:30:53.405Z,4.90
2018-04-10T10:31:53.410Z,3.30
2018-04-10T10:32:53.415Z,3.70
2018-04-10T10:33:53.381Z,3.70
2018-04-10T10:34:53.382Z,4.20
2018-04-10T10:35:53.376Z,4.50
2018-04-10T10:36:53.332Z,5.10
2018-04-10T10:37:53.347Z,2.70
2018-04-10T10:38:53.308Z,5.40
2018-04-10T10:39:53.299Z,4.90
2018-04-10T10:40:53.295Z,5.30
2018-04-10T10:41:53.302Z,3.10
2018-04-10T10:42:53.275Z,2.90
2018-04-10T10:43:53.269Z,4.50
2018-04-10T10:44:53.246Z,4.90
2018-04-10T10:45:53.278Z,10.90
2018-04-10T10:46:53.245Z,4.00
2018-04-10T10:47:53.221Z,4.40
2018-04-10T10:48:53.245Z,3.70
2018-04-10T10:49:53.198Z,3.70
2018-04-10T10:50:53.204Z,9.00
2018-04-10T10:51:53.216Z,4.10
2018-04-10T10:52:53.235Z,3.80
2018-04-10T10:53:53.212Z,17.10
2018-04-10T10:54:53.179Z,4.90
2018-04-10T10:55:53.201Z,3.80
2018-04-10T10:56:53.172Z,3.70
2018-04-10T10:57:53.168Z,4.70
2018-04-10T10:58:53.160Z,3.80
2018-04-10T10:59:53.157Z,6.70
2018-04-10T11:00:53.166Z,2.40
2018-04-10T11:01:53.098Z,3.80
2018-04-10T11:02:53.062Z,4.00
2018-04-10T11:03:53.082Z,3.70
2018-04-10T11:04:53.045Z,3.30
2018-04-10T11:05:53.056Z,3.60
2018-04-10T11:06:53.056Z,6.60
2018-04-10T11:07:53.104Z,4.70
2018-04-10T11:08:53.028Z,3.00
2018-04-10T11:09:52.998Z,5.20
2018-04-10T11:10:53.006Z,3.70
2018-04-10T11:11:52.991Z,2.80
2018-04-10T11:12:53.027Z,4.50
2018-04-10T11:13:52.965Z,5.10
2018-04-10T11:16:15.025Z,4.10
2018-04-10T11:17:14.996Z,4.40
2018-04-10T11:19:09.406Z,3.40
2018-04-10T11:20:09.389Z,2.60
2018-04-10T11:21:09.349Z,2.90
2018-04-10T11:22:09.348Z,3.20
2018-04-10T11:23:09.336Z,3.20
2018-04-10T11:24:09.364Z,4.50
2018-04-10T11:25:09.312Z,3.50
2018-04-10T11:26:09.316Z,4.80
2018-04-10T11:27:09.291Z,2.70
2018-04-10T11:28:09.283Z,4.80
2018-04-10T11:29:09.297Z,2.30
2018-04-10T11:30:09.263Z,3.70
2018-04-10T11:31:09.271Z,3.90
2018-04-10T11:32:09.240Z,2.80
2018-04-10T11:33:09.244Z,3.20
2018-04-10T11:34:09.222Z,4.90
2018-04-10T11:35:09.223Z,4.40
2018-04-10T11:36:09.241Z,5.10
2018-04-10T11:37:09.212Z,3.30
2018-04-10T11:38:09.179Z,2.40
2018-04-10T11:39:09.224Z,3.10
2018-04-10T11:40:09.162Z,3.30
2018-04-10T11:41:09.155Z,4.50
2018-04-10T11:42:09.186Z,4.80
2018-04-10T11:43:09.160Z,2.10
2018-04-10T11:44:09.130Z,3.80
2018-04-10T11:45:09.122Z,2.60
2018-04-10T11:46:09.120Z,3.60
2018-04-10T11:47:09.116Z,3.90
2018-04-10T11:48:09.093Z,4.70
2018-04-10T11:49:09.101Z,2.70
2018-04-10T11:50:09.102Z,2.90
2018-04-10T11:51:09.067Z,2.70
2018-04-10T11:52:09.054Z,3.30
2018-04-10T11:53:09.055Z,3.10
2018-04-10T11:54:09.058Z,4.90
2018-04-10T11:55:09.020Z,3.80
2018-04-10T11:56:09.023Z,3.90
2018-04-10T11:57:09.038Z,5.40
2018-04-10T11:58:08.991Z,2.80
2018-04-10T11:59:09.036Z,2.70
2018-04-10T12:00:09.013Z,3.40
2018-04-10T12:01:09.015Z,5.10
2018-04-10T12:02:08.993Z,4.40
2018-04-10T12:03:08.951Z,4.50
2018-04-10T12:04:08.958Z,6.30
2018-04-10T12:05:08.931Z,3.50
2018-04-10T12:06:08.930Z,5.70
2018-04-10T12:07:08.948Z,3.40
2018-04-10T12:08:08.916Z,3.70
2018-04-10T12:09:08.918Z,3.10
2018-04-10T12:10:08.880Z,4.60
2018-04-10T12:11:08.879Z,3.30
2018-04-10T12:12:08.875Z,7.30
2018-04-10T12:13:08.859Z,3.50
2018-04-10T12:14:08.947Z,3.50
2018-04-10T12:15:08.859Z,4.00
2018-04-10T12:16:08.872Z,4.10
2018-04-10T12:17:08.822Z,5.60
2018-04-10T12:18:08.814Z,3.70
2018-04-10T12:19:08.923Z,5.40
2018-04-10T12:20:08.799Z,4.30
2018-04-10T12:21:08.801Z,6.80
2018-04-10T12:22:08.779Z,3.60
2018-04-10T12:23:08.831Z,2.30
2018-04-10T12:24:08.765Z,2.10
2018-04-10T12:25:08.753Z,3.60
2018-04-10T12:26:08.870Z,3.90
2018-04-10T12:27:08.747Z,3.90
2018-04-10T12:28:08.848Z,4.10
2018-04-10T12:29:08.714Z,3.90
2018-04-10T12:30:08.706Z,3.70
2018-04-10T12:31:08.694Z,3.70
2018-04-10T12:32:08.739Z,5.80
2018-04-10T12:33:08.723Z,4.20
2018-04-10T12:34:08.670Z,3.30
2018-04-10T12:35:08.683Z,7.50
2018-04-10T12:36:08.682Z,3.70
2018-04-10T12:37:08.647Z,4.60
2018-04-10T12:38:08.718Z,5.90
2018-04-10T12:39:08.692Z,3.70
2018-04-10T12:40:08.643Z,3.20
2018-04-10T12:41:08.627Z,3.60
2018-04-10T12:42:08.602Z,3.80
2018-04-10T12:43:08.668Z,3.40
2018-04-10T12:44:08.601Z,3.50
2018-04-10T12:45:08.576Z,4.10
2018-04-10T12:46:08.568Z,4.80
2018-04-10T12:47:08.555Z,6.00
2018-04-10T12:48:08.559Z,4.50
2018-04-10T12:49:08.533Z,4.30
2018-04-10T12:50:08.560Z,4.70
2018-04-10T12:51:08.517Z,3.30
2018-04-10T12:52:08.509Z,3.90
2018-04-10T12:53:08.502Z,6.20
2018-04-10T12:54:08.524Z,3.90
2018-04-10T12:55:08.504Z,2.50
2018-04-10T12:56:08.495Z,3.00
2018-04-10T12:57:08.506Z,3.40
2018-04-10T12:58:08.459Z,4.80
2018-04-10T12:59:08.496Z,3.30
2018-04-10T13:00:08.456Z,2.20
2018-04-10T13:01:08.429Z,5.70
2018-04-10T13:02:08.454Z,4.40
2018-04-10T13:03:08.410Z,4.40
2018-04-10T13:04:08.399Z,2.80
2018-04-10T13:05:08.418Z,4.20
2018-04-10T13:06:08.395Z,2.90
2018-04-10T13:07:08.371Z,4.00
2018-04-10T13:08:08.425Z,5.50